Latest Coastal Weather Observations for Townsville

IDQ60701

Issued at 1:01 am EST Tuesday 30 May 2017 (issued every 10 minutes, with the page automatically refreshed every 10 minutes)

About coastal observations | Map of coastal stations | Coastal observations for QLD | Marine services | Other Formats
Station Details ID: 032040 Name: TOWNSVILLE AERO Lat: -19.25 Lon: 146.77 Height: 4.34 m
Data from the previous 72 hours. | See also: Recent months at Townsville
Date/Time
EST
Temp
°C
Wind Pressure Rain since
9am
mm
Weather Cloud Vis
km
Sea
Height
m
Swell
Dir  Spd
kts
Gust
kts
hPa Trend Height
m
Period
s
Dir
30/01:00am 20.1 SSW 3 4 1018.3 - 0.0 - - 10 - - - -
30/12:30am 19.4 CALM 0 0 1018.1 - 0.0 - - 10 - - - -
30/12:00am 18.7 CALM 0 0 1018.5 R 0.0 - - 10 - - - -
 
Date/Time
EST
Temp
°C
Wind Pressure Rain since
9am
mm
Weather Cloud Vis
km
Sea
Height
m
Swell
Dir  Spd
kts
Gust
kts
hPa Trend Height
m
Period
s
Dir
29/11:30pm 19.6 CALM 0 0 1018.6 - 0.0 - - 10 - - - -
29/11:00pm 20.2 CALM 0 0 1018.7 - 0.0 - - 10 - - - -
29/10:30pm 20.6 CALM 0 0 1018.8 - 0.0 - - 10 - - - -
29/10:00pm 21.0 SSW 3 4 1018.8 - 0.0 - - 10 - - - -
29/09:30pm 21.2 CALM 0 0 1018.9 - 0.0 - - 10 - - - -
29/09:00pm 20.8 CALM 0 0 1018.5 F 0.0 - Cloudy 10 - - - -
29/08:30pm 20.8 N 4 6 1018.5 - 0.0 - - 10 - - - -
29/08:00pm 21.7 W 4 4 1018.2 - 0.0 - - 10 - - - -
29/07:30pm 21.9 W 3 5 1018.2 - 0.0 - - 10 - - - -
29/07:00pm 22.3 W 5 6 1017.8 - 0.0 - - 10 - - - -
29/06:30pm 22.9 CALM 0 0 1017.4 - 0.0 - - 10 - - - -
29/06:00pm 22.9 ENE 5 6 1017.3 R 0.0 - Mostly cloudy 10 - - - -
29/05:30pm 23.3 ENE 4 5 1016.9 - 0.0 - Mostly clear 10 - - - -
29/05:00pm 23.8 ENE 6 8 1016.5 - 0.0 - Mostly clear 10 - - - -
29/04:30pm 24.0 ENE 9 12 1016.5 - 0.0 - Mostly clear 10 - - - -
29/04:00pm 24.8 ENE 12 15 1016.5 - 0.0 - Mostly clear 10 - - - -
29/03:30pm 25.3 ENE 9 11 1016.2 - 0.0 - Mostly clear 10 - - - -
29/03:00pm 25.0 NE 9 13 1016.2 R 0.0 - Partly cloudy 10 - - - -
29/02:30pm 25.7 NE 9 11 1016.4 - 0.0 - Mostly clear 10 - - - -
29/02:00pm 25.7 NE 6 9 1016.5 - 0.0 - Mostly clear 10 - - - -
29/01:30pm 25.9 NE 7 9 1016.5 - 0.0 - Mostly clear 10 - - - -
29/01:00pm 25.8 NE 8 11 1016.7 - 0.0 - Mostly clear 10 - - - -
29/12:30pm 26.5 ENE 8 12 1017.3 - 0.0 - Mostly clear 10 - - - -
29/12:00pm 26.3 ENE 4 8 1017.8 F 0.0 - Cloudy 10 - - - -
29/11:30am 25.0 E 6 8 1018.3 - 0.0 - Mostly clear 10 - - - -
29/11:00am 25.3 ESE 5 8 1018.6 - 0.0 - Mostly clear 10 - - - -
29/10:30am 24.9 SE 6 9 1018.8 - 0.0 - Mostly clear 10 - - - -
29/10:00am 24.4 SE 6 9 1019.1 - 0.0 - Mostly clear 10 - - - -
29/09:30am 23.8 SSW 5 7 1019.2 - 0.0 - Mostly clear 10 - - - -
29/09:00am 22.9 CALM 0 0 1019.2 R 0.0 - Mostly clear 10 - - - -
29/08:30am 21.4 CALM 0 0 1018.7 - 0.0 - Mostly clear 10 - - - -
29/08:00am 20.0 SSE 1 3 1018.4 - 0.0 - Mostly clear 10 - - - -
29/07:30am 18.9 CALM 0 5 1018.1 - 0.0 - Mostly clear 10 - - - -
29/07:20am 18.5 S 1 4 1018.1 - 0.0 - Mostly clear 10 - - - -
29/07:00am 17.8 SE 3 5 1017.6 - 0.0 - Mostly clear 10 - - - -
29/06:30am 17.7 CALM 0 0 1017.7 - 0.0 Shallow fog Mostly clear 10 - - - -
29/06:00am 17.9 CALM 0 0 1017.2 F 0.0 - Partly cloudy 10 - - - -
29/05:43am 17.8 CALM 0 0 1017.2 - 0.0 - Partly cloudy 10 - - - -
29/05:30am 17.8 SSE 1 4 1017.0 - 0.0 - - 10 - - - -
29/05:07am 18.0 NW 4 4 1017.1 - 0.0 - Partly cloudy 10 - - - -
29/05:00am 17.7 NW 3 4 1017.0 - 0.0 - Partly cloudy 10 - - - -
29/04:53am 18.1 NW 3 4 1016.9 - 0.0 - Partly cloudy 10 - - - -
29/04:40am 18.0 NW 4 4 1016.8 - 0.0 - Partly cloudy 10 - - - -
29/04:30am 18.0 NW 3 4 1016.7 - 0.0 - Partly cloudy 10 - - - -
29/04:08am 18.1 CALM 0 0 1016.7 - 0.0 - Partly cloudy 10 - - - -
29/04:00am 18.1 CALM 0 0 1016.7 - 0.0 - Partly cloudy 10 - - - -
29/03:30am 17.4 WNW 2 4 1016.6 - 0.0 - Partly cloudy 10 - - - -
29/03:29am 17.5 WNW 2 4 1016.6 - 0.0 - Partly cloudy 10 - - - -
29/03:04am 18.1 CALM 0 0 1017.0 - 0.0 - - 5 - - - -
29/03:00am 18.3 CALM 0 0 1017.0 R 0.0 - - 10 - - - -
29/02:30am 18.6 CALM 0 0 1017.0 - 0.0 - Partly cloudy 10 - - - -
29/02:00am 18.2 CALM 0 0 1017.1 - 0.0 - - 10 - - - -
29/01:30am 18.7 CALM 0 0 1017.3 - 0.0 - - 10 - - - -
29/01:00am 18.9 CALM 0 0 1017.6 - 0.0 - - 10 - - - -
29/12:30am 18.5 CALM 0 0 1017.8 - 0.0 - - 10 - - - -
29/12:00am 19.6 CALM 0 0 1017.9 R 0.0 - - 10 - - - -
 
Date/Time
EST
Temp
°C
Wind Pressure Rain since
9am
mm
Weather Cloud Vis
km
Sea
Height
m
Swell
Dir  Spd
kts
Gust
kts
hPa Trend Height
m
Period
s
Dir
28/11:30pm 20.4 CALM 0 0 1018.1 - 0.0 - - 10 - - - -
28/11:00pm 19.8 CALM 0 0 1018.3 - 0.0 - - 10 - - - -
28/10:30pm 20.7 CALM 0 0 1018.4 - 0.0 - - 10 - - - -
28/10:00pm 21.1 SSE 2 4 1018.4 - 0.0 - - 10 - - - -
28/09:30pm 20.9 SE 4 4 1018.2 - 0.0 - Partly cloudy 10 - - - -
28/09:26pm 20.7 SE 4 4 1018.1 - 0.0 - Partly cloudy 10 - - - -
28/09:12pm 21.6 CALM 0 0 1018.1 - 0.0 - Partly cloudy 10 - - - -
28/09:00pm 21.3 ESE 2 4 1018.0 R 0.0 - Mostly clear 10 - - - -
28/08:30pm 21.6 E 4 4 1017.7 - 0.0 - Partly cloudy 10 - - - -
28/08:00pm 21.8 E 4 5 1017.4 - 0.0 - Partly cloudy 10 - - - -
28/07:30pm 21.8 E 5 6 1017.0 - 0.0 - - 10 - - - -
28/07:00pm 22.0 ENE 6 8 1016.6 - 0.0 - - 10 - - - -
28/06:30pm 22.3 ENE 5 7 1016.2 - 0.0 - - 10 - - - -
28/06:00pm 22.6 ENE 8 9 1015.9 S 0.0 - - 10 - - - -
28/05:30pm 23.4 ENE 7 9 1015.7 - 0.0 - - 10 - - - -
28/05:00pm 24.4 ENE 8 10 1015.3 - 0.0 - - 10 - - - -
28/04:30pm 24.7 ENE 9 12 1015.0 - 0.0 - - 10 - - - -
28/04:00pm 25.1 NE 12 15 1015.0 - 0.0 - - 10 - - - -
28/03:30pm 25.2 NE 13 16 1014.9 - 0.0 - - 10 - - - -
28/03:00pm 25.5 ENE 11 14 1015.0 R 0.0 - - 10 - - - -
28/02:30pm 26.1 NE 11 14 1015.2 - 0.0 - - 10 - - - -
28/02:00pm 26.4 NE 11 13 1015.4 - 0.0 - - 10 - - - -
28/01:30pm 26.3 NE 11 15 1015.6 - 0.0 - - 10 - - - -
28/01:00pm 26.6 ENE 11 13 1016.0 - 0.0 - - 10 - - - -
28/12:30pm 26.7 NE 10 13 1016.4 - 0.0 - Partly cloudy 10 - - - -
28/12:00pm 26.1 E 6 9 1016.9 S 0.0 - Mostly clear 10 - - - -
28/11:30am 25.5 ESE 5 8 1017.2 - 0.0 - Mostly clear 10 - - - -
28/11:00am 25.9 E 6 8 1017.4 - 0.0 - Mostly clear 10 - - - -
28/10:30am 25.2 SSE 7 10 1017.8 - 0.0 - Mostly clear 10 - - - -
28/10:00am 24.6 SSE 8 11 1018.0 - 0.0 - Mostly clear 10 - - - -
28/09:30am 23.6 ESE 5 7 1017.9 - 0.0 - Mostly clear 10 - - - -
28/09:00am 22.9 WSW 1 4 1017.9 F 0.0 - Mostly clear 10 - - - -
28/08:30am 22.0 CALM 0 0 1017.6 - 0.0 - Mostly clear 10 - - - -
28/08:00am 19.9 CALM 0 0 1017.4 - 0.0 - Mostly clear 10 - - - -
28/07:30am 18.6 CALM 0 0 1017.2 - 0.0 - Mostly clear 10 - - - -
28/07:22am 18.3 CALM 0 0 1017.2 - 0.0 - Mostly clear 10 - - - -
28/07:00am 17.8 CALM 0 0 1017.0 - 0.0 - Mostly clear 10 - - - -
28/06:30am 17.5 CALM 0 0 1016.7 - 0.0 Shallow fog Mostly clear 10 - - - -
28/06:00am 17.6 CALM 0 0 1016.5 F 0.0 - Mostly clear 10 - - - -
28/05:35am 17.8 CALM 0 0 1016.4 - 0.0 - - 10 - - - -
28/05:30am 17.8 CALM 0 0 1016.5 - 0.0 - - 10 - - - -
28/05:15am 17.6 CALM 0 0 1016.4 - 0.0 - - 6 - - - -
28/05:00am 17.8 CALM 0 0 1016.5 - 0.0 - - 10 - - - -
28/04:30am 17.7 CALM 0 0 1016.4 - 0.0 - - 10 - - - -
28/04:00am 18.0 CALM 0 0 1016.5 - 0.0 - - 10 - - - -
28/03:30am 18.3 CALM 0 0 1016.7 - 0.0 - - 9 - - - -
28/03:00am 18.4 CALM 0 0 1016.9 F 0.0 - - 9 - - - -
28/02:30am 18.7 CALM 0 0 1017.0 - 0.0 - - 10 - - - -
28/02:00am 18.8 CALM 0 0 1017.5 - 0.0 - - 10 - - - -
28/01:30am 18.5 CALM 0 0 1017.8 - 0.0 - - 10 - - - -
28/01:00am 18.4 SW 4 5 1018.0 - 0.0 - - 10 - - - -
28/12:30am 19.1 CALM 0 0 1018.0 - 0.0 - - 10 - - - -
28/12:00am 19.4 CALM 0 0 1018.1 R 0.0 - - 10 - - - -
 
Date/Time
EST
Temp
°C
Wind Pressure Rain since
9am
mm
Weather Cloud Vis
km
Sea
Height
m
Swell
Dir  Spd
kts
Gust
kts
hPa Trend Height
m
Period
s
Dir
27/11:30pm 19.6 CALM 0 1 1018.2 - 0.0 - - 10 - - - -
27/11:00pm 19.7 S 4 5 1018.3 - 0.0 - - 10 - - - -
27/10:30pm 19.3 SE 2 4 1018.3 - 0.0 - - 10 - - - -
27/10:00pm 20.2 SE 4 5 1018.2 - 0.0 - - 10 - - - -
27/09:30pm 21.2 SE 5 6 1018.1 - 0.0 - - 10 - - - -
27/09:00pm 21.6 SE 4 6 1018.0 S 0.0 - - 10 - - - -
27/08:30pm 21.8 SE 4 5 1017.9 - 0.0 - - 10 - - - -
27/08:00pm 21.9 SE 4 5 1017.8 - 0.0 - - 10 - - - -
27/07:30pm 22.0 ESE 5 6 1017.4 - 0.0 - Partly cloudy 10 - - - -
27/07:00pm 21.7 SE 5 6 1017.1 - 0.0 - - 10 - - - -
27/06:30pm 22.4 E 6 8 1016.7 - 0.0 - - 10 - - - -
27/06:00pm 22.9 ENE 9 12 1016.3 F 0.0 - Cloudy 10 - - - -
27/05:30pm 23.2 ENE 10 13 1016.1 - 0.0 - - 10 - - - -
27/05:00pm 24.0 ENE 10 14 1015.8 - 0.0 - - 10 - - - -
27/04:30pm 24.6 ENE 10 13 1015.5 - 0.0 - - 10 - - - -
27/04:00pm 24.9 ENE 11 14 1015.5 - 0.0 - - 10 - - - -
27/03:30pm 25.2 ENE 11 15 1015.5 - 0.0 - - 10 - - - -
27/03:00pm 25.8 ENE 11 14 1015.5 R 0.0 - Partly cloudy 10 - - - -
27/02:30pm 25.6 ENE 11 15 1015.5 - 0.0 - Partly cloudy 10 - - - -
27/02:00pm 25.9 NE 10 14 1015.6 - 0.0 - Partly cloudy 10 - - - -
27/01:30pm 26.2 ENE 10 14 1015.9 - 0.0 - - 10 - - - -
27/01:00pm 26.1 E 9 13 1016.3 - 0.0 - - 10 - - - -
27/12:30pm 26.1 ENE 10 15 1016.9 - 0.0 - - 10 - - - -
27/12:00pm 25.8 ENE 10 15 1017.1 F 0.0 - Partly cloudy 10 - - - -
27/11:30am 25.6 ENE 14 18 1017.7 - 0.0 - Mostly clear 10 - - - -
27/11:00am 25.4 SE 7 11 1017.9 - 0.0 - Mostly clear 10 - - - -
27/10:30am 24.2 ESE 6 11 1018.3 - 0.0 - Mostly clear 10 - - - -
27/10:00am 24.3 SE 6 8 1018.5 - 0.0 - Mostly clear 10 - - - -
27/09:30am 23.5 SE 5 7 1018.6 - 0.0 - Mostly clear 10 - - - -
27/09:00am 22.2 SSE 5 6 1018.5 R 0.0 - Mostly clear 10 - - - -
27/08:30am 20.3 SSE 6 7 1018.3 - 0.0 - Mostly clear 10 - - - -
27/08:00am 18.2 CALM 0 0 1018.1 - 0.0 - Mostly clear 10 - - - -
27/07:30am 17.8 WNW 3 4 1017.8 - 0.0 - Mostly clear 10 - - - -
27/07:00am 16.5 WNW 2 4 1017.6 - 0.0 - Mostly clear 10 - - - -
27/06:30am 17.0 S 1 5 1017.2 - 0.0 - Mostly clear 10 - - - -
27/06:00am 18.0 S 4 5 1016.9 F 0.0 - Cloudy 10 - - - -
27/05:30am 17.4 SSE 5 6 1016.7 - 0.0 - Partly cloudy 10 - - - -
27/05:00am 16.4 CALM 0 0 1016.5 - 0.0 - - 10 - - - -
27/04:30am 16.6 CALM 0 0 1016.6 - 0.0 - - 10 - - - -
27/04:00am 17.0 N 4 4 1016.6 - 0.0 - - 10 - - - -
27/03:30am 17.2 CALM 0 0 1016.7 - 0.0 - - 10 - - - -
27/03:00am 17.3 CALM 0 0 1016.8 R 0.0 - - 10 - - - -
27/02:30am 16.9 CALM 0 0 1017.0 - 0.0 - - 10 - - - -
27/02:00am 16.9 CALM 0 0 1017.3 - 0.0 - - 10 - - - -
27/01:30am 17.5 CALM 0 0 1017.2 - 0.0 - Partly cloudy 10 - - - -

Other Formats:

Comma delimited format used in spreadsheet applications
http://www.bom.gov.au/fwo/IDQ60701/IDQ60701.94294.axf

JavaScript Object Notation format (JSON) in row-major order
http://www.bom.gov.au/fwo/IDQ60701/IDQ60701.94294.json